Skip Navigation LinksHome page > Weather > Current weather Skip Navigation Links

Current Weather

Easton/Newnam Field, Easton, Md.

For information only: do not use for flight planning or navigation.
Latest weather
Observation time Tuesday, January 26, 2021 4:50 PM EST
Local time Tuesday, January 26, 2021 5:38 PM EST
Flight conditions Low Instrument Meteorological Conditions
Winds
Wind direction West-Northwest (300°)
Wind speed 5 mph
Visibility 2 mi.
Present weather mist
Sky condition
Ceiling 300 ft. overcast
Cloud layer overcast 300 ft.
Temperature 39°F
Dewpoint 37°F
Altimeter 29.86 in.Hg
Derived measurements
Relative humidity 93%
Wind chill 36°F
Density altitude -1078 ft.
METAR KESN 262150Z 30004KT 2SM BR OVC003 04/03 A2986

Settings

Location code

InnerDrive.Weather 4.0.6770.0 Release CLR 4.0.30319.42000
Copyright ©2018 Inner Drive Technology. All rights reserved. Portions Copyright ©1986-2018 David Braverman.

Find weather

Site navigation


Skip Navigation Links

Place info

Page info

PayPal - The safer, easier way to pay online!

Return home.

Copyright ©2021 Inner Drive Technology. Purveyors of fine, hand-crafted computer software. Page printed 2021-01-26T22:38:56 UTC.